sensor_id;sensor_type;location;lat;lon;timestamp;temperature;humidity
71098;SHT35;58754;47.622;-2.986;2023-07-28T00:00:08;25.21;69.16
71098;SHT35;58754;47.622;-2.986;2023-07-28T00:02:34;25.19;69.13
71098;SHT35;58754;47.622;-2.986;2023-07-28T00:05:00;25.21;69.25
71098;SHT35;58754;47.622;-2.986;2023-07-28T00:07:26;25.22;69.24
71098;SHT35;58754;47.622;-2.986;2023-07-28T00:09:51;25.24;69.20
71098;SHT35;58754;47.622;-2.986;2023-07-28T00:12:17;25.24;69.17
71098;SHT35;58754;47.622;-2.986;2023-07-28T00:14:42;25.24;69.22
71098;SHT35;58754;47.622;-2.986;2023-07-28T00:17:08;25.22;69.25
71098;SHT35;58754;47.622;-2.986;2023-07-28T00:19:34;25.24;69.20
71098;SHT35;58754;47.622;-2.986;2023-07-28T00:21:59;25.24;69.28
71098;SHT35;58754;47.622;-2.986;2023-07-28T00:24:25;25.25;69.31
71098;SHT35;58754;47.622;-2.986;2023-07-28T00:26:51;25.27;69.25
71098;SHT35;58754;47.622;-2.986;2023-07-28T00:29:16;25.28;69.27
71098;SHT35;58754;47.622;-2.986;2023-07-28T00:31:42;25.28;69.31
71098;SHT35;58754;47.622;-2.986;2023-07-28T00:34:08;25.25;69.35
71098;SHT35;58754;47.622;-2.986;2023-07-28T00:36:33;25.28;69.23
71098;SHT35;58754;47.622;-2.986;2023-07-28T00:38:59;25.28;69.29
71098;SHT35;58754;47.622;-2.986;2023-07-28T00:41:25;25.32;69.35
71098;SHT35;58754;47.622;-2.986;2023-07-28T00:43:50;25.29;69.30
71098;SHT35;58754;47.622;-2.986;2023-07-28T00:46:16;25.31;69.24
71098;SHT35;58754;47.622;-2.986;2023-07-28T00:48:43;25.31;69.28
71098;SHT35;58754;47.622;-2.986;2023-07-28T00:51:10;25.31;69.25
71098;SHT35;58754;47.622;-2.986;2023-07-28T00:53:37;25.31;69.24
71098;SHT35;58754;47.622;-2.986;2023-07-28T00:56:03;25.31;69.28
71098;SHT35;58754;47.622;-2.986;2023-07-28T00:58:30;25.34;69.33
71098;SHT35;58754;47.622;-2.986;2023-07-28T01:00:56;25.32;69.26
71098;SHT35;58754;47.622;-2.986;2023-07-28T01:03:22;25.32;69.35
71098;SHT35;58754;47.622;-2.986;2023-07-28T01:06:20;25.31;69.31
71098;SHT35;58754;47.622;-2.986;2023-07-28T01:09:00;25.34;69.33
71098;SHT35;58754;47.622;-2.986;2023-07-28T01:11:26;25.34;69.32
71098;SHT35;58754;47.622;-2.986;2023-07-28T01:13:52;25.32;69.32
71098;SHT35;58754;47.622;-2.986;2023-07-28T01:16:18;25.34;69.33
71098;SHT35;58754;47.622;-2.986;2023-07-28T01:18:43;25.34;69.32
71098;SHT35;58754;47.622;-2.986;2023-07-28T01:21:16;25.32;69.22
71098;SHT35;58754;47.622;-2.986;2023-07-28T01:26:36;25.34;69.19
71098;SHT35;58754;47.622;-2.986;2023-07-28T01:29:03;25.35;69.19
71098;SHT35;58754;47.622;-2.986;2023-07-28T01:31:30;25.32;69.33
71098;SHT35;58754;47.622;-2.986;2023-07-28T01:33:55;25.34;69.23
71098;SHT35;58754;47.622;-2.986;2023-07-28T01:36:21;25.31;69.26
71098;SHT35;58754;47.622;-2.986;2023-07-28T01:38:47;25.35;69.29
71098;SHT35;58754;47.622;-2.986;2023-07-28T01:41:12;25.36;69.22
71098;SHT35;58754;47.622;-2.986;2023-07-28T01:43:38;25.35;69.20
71098;SHT35;58754;47.622;-2.986;2023-07-28T01:46:04;25.35;69.21
71098;SHT35;58754;47.622;-2.986;2023-07-28T01:48:30;25.34;69.17
71098;SHT35;58754;47.622;-2.986;2023-07-28T01:50:55;25.36;69.18
71098;SHT35;58754;47.622;-2.986;2023-07-28T01:53:21;25.35;69.17
71098;SHT35;58754;47.622;-2.986;2023-07-28T01:55:47;25.35;69.20
71098;SHT35;58754;47.622;-2.986;2023-07-28T01:58:12;25.36;69.23
71098;SHT35;58754;47.622;-2.986;2023-07-28T02:00:38;25.35;69.24
71098;SHT35;58754;47.622;-2.986;2023-07-28T02:03:04;25.36;69.24
71098;SHT35;58754;47.622;-2.986;2023-07-28T02:05:30;25.38;69.23
71098;SHT35;58754;47.622;-2.986;2023-07-28T02:07:57;25.36;69.13
71098;SHT35;58754;47.622;-2.986;2023-07-28T02:10:23;25.38;69.23
71098;SHT35;58754;47.622;-2.986;2023-07-28T02:12:49;25.35;69.27
71098;SHT35;58754;47.622;-2.986;2023-07-28T02:15:16;25.36;69.23
71098;SHT35;58754;47.622;-2.986;2023-07-28T02:17:42;25.35;69.26
71098;SHT35;58754;47.622;-2.986;2023-07-28T02:20:08;25.38;69.27
71098;SHT35;58754;47.622;-2.986;2023-07-28T02:22:38;25.38;69.25
71098;SHT35;58754;47.622;-2.986;2023-07-28T02:25:05;25.38;69.24
71098;SHT35;58754;47.622;-2.986;2023-07-28T02:27:31;25.39;69.32
71098;SHT35;58754;47.622;-2.986;2023-07-28T02:29:57;25.39;69.28
71098;SHT35;58754;47.622;-2.986;2023-07-28T02:32:22;25.38;69.28
71098;SHT35;58754;47.622;-2.986;2023-07-28T02:34:49;25.38;69.27
71098;SHT35;58754;47.622;-2.986;2023-07-28T02:37:15;25.38;69.32
71098;SHT35;58754;47.622;-2.986;2023-07-28T02:39:41;25.36;69.22
71098;SHT35;58754;47.622;-2.986;2023-07-28T02:42:07;25.38;69.28
71098;SHT35;58754;47.622;-2.986;2023-07-28T02:44:33;25.39;69.24
71098;SHT35;58754;47.622;-2.986;2023-07-28T02:46:59;25.38;69.21
71098;SHT35;58754;47.622;-2.986;2023-07-28T02:49:24;25.38;69.24
71098;SHT35;58754;47.622;-2.986;2023-07-28T02:51:50;25.38;69.26
71098;SHT35;58754;47.622;-2.986;2023-07-28T02:54:15;25.39;69.24
71098;SHT35;58754;47.622;-2.986;2023-07-28T02:56:41;25.38;69.19
71098;SHT35;58754;47.622;-2.986;2023-07-28T02:59:07;25.36;69.21
71098;SHT35;58754;47.622;-2.986;2023-07-28T03:01:32;25.39;69.24
71098;SHT35;58754;47.622;-2.986;2023-07-28T03:04:02;25.42;69.28
71098;SHT35;58754;47.622;-2.986;2023-07-28T03:06:28;25.38;69.24
71098;SHT35;58754;47.622;-2.986;2023-07-28T03:08:54;25.38;69.23
71098;SHT35;58754;47.622;-2.986;2023-07-28T03:11:20;25.42;69.19
71098;SHT35;58754;47.622;-2.986;2023-07-28T03:13:46;25.41;69.22
71098;SHT35;58754;47.622;-2.986;2023-07-28T03:16:11;25.39;69.25
71098;SHT35;58754;47.622;-2.986;2023-07-28T03:18:37;25.41;69.23
71098;SHT35;58754;47.622;-2.986;2023-07-28T03:21:03;25.39;69.27
71098;SHT35;58754;47.622;-2.986;2023-07-28T03:23:29;25.41;69.29
71098;SHT35;58754;47.622;-2.986;2023-07-28T03:25:55;25.39;69.21
71098;SHT35;58754;47.622;-2.986;2023-07-28T03:28:20;25.42;69.25
71098;SHT35;58754;47.622;-2.986;2023-07-28T03:30:46;25.41;69.18
71098;SHT35;58754;47.622;-2.986;2023-07-28T03:33:12;25.41;69.21
71098;SHT35;58754;47.622;-2.986;2023-07-28T03:35:37;25.42;69.20
71098;SHT35;58754;47.622;-2.986;2023-07-28T03:38:03;25.42;69.23
71098;SHT35;58754;47.622;-2.986;2023-07-28T03:40:29;25.39;69.25
71098;SHT35;58754;47.622;-2.986;2023-07-28T03:42:55;25.41;69.27
71098;SHT35;58754;47.622;-2.986;2023-07-28T03:45:20;25.41;69.27
71098;SHT35;58754;47.622;-2.986;2023-07-28T03:47:46;25.41;69.29
71098;SHT35;58754;47.622;-2.986;2023-07-28T03:50:12;25.41;69.33
71098;SHT35;58754;47.622;-2.986;2023-07-28T03:52:37;25.43;69.32
71098;SHT35;58754;47.622;-2.986;2023-07-28T03:55:03;25.41;69.33
71098;SHT35;58754;47.622;-2.986;2023-07-28T03:57:29;25.39;69.35
71098;SHT35;58754;47.622;-2.986;2023-07-28T03:59:55;25.41;69.34
71098;SHT35;58754;47.622;-2.986;2023-07-28T04:02:21;25.39;69.40
71098;SHT35;58754;47.622;-2.986;2023-07-28T04:04:46;25.42;69.50
71098;SHT35;58754;47.622;-2.986;2023-07-28T04:07:12;25.39;69.44
71098;SHT35;58754;47.622;-2.986;2023-07-28T04:09:38;25.38;69.47
71098;SHT35;58754;47.622;-2.986;2023-07-28T04:12:04;25.39;69.46
71098;SHT35;58754;47.622;-2.986;2023-07-28T04:14:29;25.36;69.50
71098;SHT35;58754;47.622;-2.986;2023-07-28T04:16:55;25.42;69.55
71098;SHT35;58754;47.622;-2.986;2023-07-28T04:19:21;25.39;69.53
71098;SHT35;58754;47.622;-2.986;2023-07-28T04:21:46;25.41;69.49
71098;SHT35;58754;47.622;-2.986;2023-07-28T04:24:12;25.39;69.51
71098;SHT35;58754;47.622;-2.986;2023-07-28T04:26:38;25.39;69.64
71098;SHT35;58754;47.622;-2.986;2023-07-28T04:29:03;25.38;69.62
71098;SHT35;58754;47.622;-2.986;2023-07-28T04:31:29;25.38;69.57
71098;SHT35;58754;47.622;-2.986;2023-07-28T04:33:55;25.38;69.67
71098;SHT35;58754;47.622;-2.986;2023-07-28T04:36:21;25.38;69.65
71098;SHT35;58754;47.622;-2.986;2023-07-28T04:38:46;25.35;69.71
71098;SHT35;58754;47.622;-2.986;2023-07-28T04:41:12;25.38;69.76
71098;SHT35;58754;47.622;-2.986;2023-07-28T04:43:38;25.38;69.79
71098;SHT35;58754;47.622;-2.986;2023-07-28T04:46:03;25.35;69.75
71098;SHT35;58754;47.622;-2.986;2023-07-28T04:48:29;25.34;69.79
71098;SHT35;58754;47.622;-2.986;2023-07-28T04:50:55;25.35;69.79
71098;SHT35;58754;47.622;-2.986;2023-07-28T04:53:20;25.38;69.81
71098;SHT35;58754;47.622;-2.986;2023-07-28T04:55:46;25.35;69.84
71098;SHT35;58754;47.622;-2.986;2023-07-28T04:58:12;25.38;69.82
71098;SHT35;58754;47.622;-2.986;2023-07-28T05:00:37;25.38;69.83
71098;SHT35;58754;47.622;-2.986;2023-07-28T05:03:03;25.36;69.83
71098;SHT35;58754;47.622;-2.986;2023-07-28T05:05:29;25.38;69.92
71098;SHT35;58754;47.622;-2.986;2023-07-28T05:07:55;25.35;69.92
71098;SHT35;58754;47.622;-2.986;2023-07-28T05:10:21;25.36;69.97
71098;SHT35;58754;47.622;-2.986;2023-07-28T05:12:47;25.38;69.94
71098;SHT35;58754;47.622;-2.986;2023-07-28T05:15:14;25.38;69.99
71098;SHT35;58754;47.622;-2.986;2023-07-28T05:17:40;25.39;69.97
71098;SHT35;58754;47.622;-2.986;2023-07-28T05:20:06;25.38;69.97
71098;SHT35;58754;47.622;-2.986;2023-07-28T05:22:32;25.39;70.07
71098;SHT35;58754;47.622;-2.986;2023-07-28T05:24:58;25.39;70.08
71098;SHT35;58754;47.622;-2.986;2023-07-28T05:27:24;25.39;70.10
71098;SHT35;58754;47.622;-2.986;2023-07-28T05:29:49;25.42;70.10
71098;SHT35;58754;47.622;-2.986;2023-07-28T05:32:15;25.39;70.03
71098;SHT35;58754;47.622;-2.986;2023-07-28T05:34:44;25.42;69.99
71098;SHT35;58754;47.622;-2.986;2023-07-28T05:37:10;25.41;70.00
71098;SHT35;58754;47.622;-2.986;2023-07-28T05:39:36;25.39;70.04
71098;SHT35;58754;47.622;-2.986;2023-07-28T05:42:01;25.41;70.02
71098;SHT35;58754;47.622;-2.986;2023-07-28T05:44:28;25.42;69.98
71098;SHT35;58754;47.622;-2.986;2023-07-28T05:46:53;25.41;69.94
71098;SHT35;58754;47.622;-2.986;2023-07-28T05:49:19;25.41;70.00
71098;SHT35;58754;47.622;-2.986;2023-07-28T05:51:45;25.41;69.98
71098;SHT35;58754;47.622;-2.986;2023-07-28T05:54:12;25.42;69.93
71098;SHT35;58754;47.622;-2.986;2023-07-28T05:56:40;25.41;69.98
71098;SHT35;58754;47.622;-2.986;2023-07-28T05:59:06;25.41;69.94
71098;SHT35;58754;47.622;-2.986;2023-07-28T06:01:32;25.42;70.07
71098;SHT35;58754;47.622;-2.986;2023-07-28T06:03:58;25.39;70.01
71098;SHT35;58754;47.622;-2.986;2023-07-28T06:06:27;25.38;70.08
71098;SHT35;58754;47.622;-2.986;2023-07-28T06:08:53;25.36;70.16
71098;SHT35;58754;47.622;-2.986;2023-07-28T06:11:19;25.36;70.05
71098;SHT35;58754;47.622;-2.986;2023-07-28T06:13:45;25.36;69.97
71098;SHT35;58754;47.622;-2.986;2023-07-28T06:16:12;25.38;70.02
71098;SHT35;58754;47.622;-2.986;2023-07-28T06:18:38;25.38;70.07
71098;SHT35;58754;47.622;-2.986;2023-07-28T06:21:04;25.38;70.04
71098;SHT35;58754;47.622;-2.986;2023-07-28T06:23:30;25.38;69.96
71098;SHT35;58754;47.622;-2.986;2023-07-28T06:25:55;25.36;69.90
71098;SHT35;58754;47.622;-2.986;2023-07-28T06:28:21;25.38;69.83
71098;SHT35;58754;47.622;-2.986;2023-07-28T06:30:47;25.36;69.77
71098;SHT35;58754;47.622;-2.986;2023-07-28T06:33:13;25.36;69.78
71098;SHT35;58754;47.622;-2.986;2023-07-28T06:35:38;25.38;69.70
71098;SHT35;58754;47.622;-2.986;2023-07-28T06:38:04;25.39;69.71
71098;SHT35;58754;47.622;-2.986;2023-07-28T06:40:30;25.36;69.66
71098;SHT35;58754;47.622;-2.986;2023-07-28T06:42:56;25.36;69.62
71098;SHT35;58754;47.622;-2.986;2023-07-28T06:45:21;25.39;69.22
71098;SHT35;58754;47.622;-2.986;2023-07-28T06:47:47;25.38;68.56
71098;SHT35;58754;47.622;-2.986;2023-07-28T06:50:14;25.36;68.36
71098;SHT35;58754;47.622;-2.986;2023-07-28T06:52:39;25.36;68.14
71098;SHT35;58754;47.622;-2.986;2023-07-28T06:55:05;25.35;68.09
71098;SHT35;58754;47.622;-2.986;2023-07-28T06:57:31;25.35;67.80
71098;SHT35;58754;47.622;-2.986;2023-07-28T06:59:57;25.35;67.81
71098;SHT35;58754;47.622;-2.986;2023-07-28T07:02:23;25.36;67.72
71098;SHT35;58754;47.622;-2.986;2023-07-28T07:04:48;25.35;67.37
71098;SHT35;58754;47.622;-2.986;2023-07-28T07:07:14;25.34;67.35
71098;SHT35;58754;47.622;-2.986;2023-07-28T07:09:40;25.35;67.22
71098;SHT35;58754;47.622;-2.986;2023-07-28T07:12:08;25.32;67.34
71098;SHT35;58754;47.622;-2.986;2023-07-28T07:14:34;25.35;67.18
71098;SHT35;58754;47.622;-2.986;2023-07-28T07:17:00;25.35;67.21
71098;SHT35;58754;47.622;-2.986;2023-07-28T07:19:29;25.32;67.27
71098;SHT35;58754;47.622;-2.986;2023-07-28T07:21:55;25.32;67.25
71098;SHT35;58754;47.622;-2.986;2023-07-28T07:24:21;25.34;67.27
71098;SHT35;58754;47.622;-2.986;2023-07-28T07:26:47;25.34;67.14
71098;SHT35;58754;47.622;-2.986;2023-07-28T07:29:13;25.32;67.04
71098;SHT35;58754;47.622;-2.986;2023-07-28T07:31:39;25.34;66.97
71098;SHT35;58754;47.622;-2.986;2023-07-28T07:34:05;25.32;66.88
71098;SHT35;58754;47.622;-2.986;2023-07-28T07:36:31;25.32;66.84
71098;SHT35;58754;47.622;-2.986;2023-07-28T07:38:57;25.35;66.84
71098;SHT35;58754;47.622;-2.986;2023-07-28T07:41:23;25.34;66.87
71098;SHT35;58754;47.622;-2.986;2023-07-28T07:43:51;25.34;66.86
71098;SHT35;58754;47.622;-2.986;2023-07-28T07:46:18;25.36;66.84
71098;SHT35;58754;47.622;-2.986;2023-07-28T07:48:45;25.35;66.88
71098;SHT35;58754;47.622;-2.986;2023-07-28T07:51:11;25.38;66.96
71098;SHT35;58754;47.622;-2.986;2023-07-28T07:53:37;25.39;66.99
71098;SHT35;58754;47.622;-2.986;2023-07-28T07:56:03;25.42;66.88
71098;SHT35;58754;47.622;-2.986;2023-07-28T07:58:30;25.41;66.91
71098;SHT35;58754;47.622;-2.986;2023-07-28T08:00:56;25.46;66.92
71098;SHT35;58754;47.622;-2.986;2023-07-28T08:03:21;25.45;66.85
71098;SHT35;58754;47.622;-2.986;2023-07-28T08:05:47;25.49;66.90
71098;SHT35;58754;47.622;-2.986;2023-07-28T08:08:13;25.52;66.82
71098;SHT35;58754;47.622;-2.986;2023-07-28T08:10:48;25.50;66.92
71098;SHT35;58754;47.622;-2.986;2023-07-28T08:13:14;25.53;66.84
71098;SHT35;58754;47.622;-2.986;2023-07-28T08:15:40;25.58;66.90
71098;SHT35;58754;47.622;-2.986;2023-07-28T08:18:06;25.54;66.95
71098;SHT35;58754;47.622;-2.986;2023-07-28T08:20:32;25.58;66.99
71098;SHT35;58754;47.622;-2.986;2023-07-28T08:22:58;25.54;66.89
71098;SHT35;58754;47.622;-2.986;2023-07-28T08:25:23;25.59;66.85
71098;SHT35;58754;47.622;-2.986;2023-07-28T08:27:50;25.58;66.70
71098;SHT35;58754;47.622;-2.986;2023-07-28T08:30:15;25.60;66.79
71098;SHT35;58754;47.622;-2.986;2023-07-28T08:32:42;25.62;66.80
71098;SHT35;58754;47.622;-2.986;2023-07-28T08:35:08;25.60;66.72
71098;SHT35;58754;47.622;-2.986;2023-07-28T08:37:34;25.63;66.79
71098;SHT35;58754;47.622;-2.986;2023-07-28T08:40:00;25.62;65.75
71098;SHT35;58754;47.622;-2.986;2023-07-28T08:42:25;25.56;65.06
71098;SHT35;58754;47.622;-2.986;2023-07-28T08:44:51;25.46;65.01
71098;SHT35;58754;47.622;-2.986;2023-07-28T08:47:19;25.49;65.32
71098;SHT35;58754;47.622;-2.986;2023-07-28T08:49:45;25.46;65.53
71098;SHT35;58754;47.622;-2.986;2023-07-28T08:52:15;25.46;65.64
71098;SHT35;58754;47.622;-2.986;2023-07-28T08:54:41;25.49;65.65
71098;SHT35;58754;47.622;-2.986;2023-07-28T08:57:08;25.52;65.68
71098;SHT35;58754;47.622;-2.986;2023-07-28T08:59:34;25.53;65.68
71098;SHT35;58754;47.622;-2.986;2023-07-28T09:02:01;25.54;65.57
71098;SHT35;58754;47.622;-2.986;2023-07-28T09:04:27;25.56;65.51
71098;SHT35;58754;47.622;-2.986;2023-07-28T09:06:53;25.53;64.92
71098;SHT35;58754;47.622;-2.986;2023-07-28T09:09:21;25.50;64.75
71098;SHT35;58754;47.622;-2.986;2023-07-28T09:11:53;25.46;64.70
71098;SHT35;58754;47.622;-2.986;2023-07-28T09:14:21;25.45;64.65
71098;SHT35;58754;47.622;-2.986;2023-07-28T09:16:49;25.43;64.65
71098;SHT35;58754;47.622;-2.986;2023-07-28T09:19:15;25.39;64.70
71098;SHT35;58754;47.622;-2.986;2023-07-28T09:21:43;25.39;64.81
71098;SHT35;58754;47.622;-2.986;2023-07-28T09:24:12;25.36;64.91
71098;SHT35;58754;47.622;-2.986;2023-07-28T09:26:45;25.36;65.07
71098;SHT35;58754;47.622;-2.986;2023-07-28T09:31:37;25.36;65.25
71098;SHT35;58754;47.622;-2.986;2023-07-28T09:34:07;25.36;65.20
71098;SHT35;58754;47.622;-2.986;2023-07-28T09:36:34;25.36;65.26
71098;SHT35;58754;47.622;-2.986;2023-07-28T09:39:02;25.36;65.29
71098;SHT35;58754;47.622;-2.986;2023-07-28T09:41:29;25.38;65.34
71098;SHT35;58754;47.622;-2.986;2023-07-28T09:43:56;25.38;65.46
71098;SHT35;58754;47.622;-2.986;2023-07-28T09:46:24;25.36;65.45
71098;SHT35;58754;47.622;-2.986;2023-07-28T09:48:56;25.39;65.48
71098;SHT35;58754;47.622;-2.986;2023-07-28T09:51:29;25.39;65.50
71098;SHT35;58754;47.622;-2.986;2023-07-28T09:54:05;25.38;65.54
71098;SHT35;58754;47.622;-2.986;2023-07-28T09:56:34;25.39;65.54
71098;SHT35;58754;47.622;-2.986;2023-07-28T09:59:04;25.38;65.57
71098;SHT35;58754;47.622;-2.986;2023-07-28T10:01:33;25.38;65.57
71098;SHT35;58754;47.622;-2.986;2023-07-28T10:04:00;25.42;65.59
71098;SHT35;58754;47.622;-2.986;2023-07-28T10:06:26;25.41;65.69
71098;SHT35;58754;47.622;-2.986;2023-07-28T10:08:52;25.41;65.63
71098;SHT35;58754;47.622;-2.986;2023-07-28T10:11:18;25.39;65.67
71098;SHT35;58754;47.622;-2.986;2023-07-28T10:13:46;25.41;65.69
71098;SHT35;58754;47.622;-2.986;2023-07-28T10:16:12;25.39;65.41
71098;SHT35;58754;47.622;-2.986;2023-07-28T10:18:41;25.38;64.73
71098;SHT35;58754;47.622;-2.986;2023-07-28T10:21:09;25.38;64.48
71098;SHT35;58754;47.622;-2.986;2023-07-28T10:23:38;25.36;64.26
71098;SHT35;58754;47.622;-2.986;2023-07-28T10:26:07;25.34;64.11
71098;SHT35;58754;47.622;-2.986;2023-07-28T10:28:36;25.32;64.06
71098;SHT35;58754;47.622;-2.986;2023-07-28T10:31:05;25.31;64.09
71098;SHT35;58754;47.622;-2.986;2023-07-28T10:33:37;25.31;64.10
71098;SHT35;58754;47.622;-2.986;2023-07-28T10:36:17;25.27;64.13
71098;SHT35;58754;47.622;-2.986;2023-07-28T10:38:43;25.27;64.00
71098;SHT35;58754;47.622;-2.986;2023-07-28T10:41:11;25.28;63.89
71098;SHT35;58754;47.622;-2.986;2023-07-28T10:43:38;25.24;63.83
71098;SHT35;58754;47.622;-2.986;2023-07-28T10:46:09;25.25;63.77
71098;SHT35;58754;47.622;-2.986;2023-07-28T10:48:46;25.27;63.78
71098;SHT35;58754;47.622;-2.986;2023-07-28T10:51:24;25.25;63.91
71098;SHT35;58754;47.622;-2.986;2023-07-28T10:53:56;25.27;64.01
71098;SHT35;58754;47.622;-2.986;2023-07-28T10:56:23;25.31;64.07
71098;SHT35;58754;47.622;-2.986;2023-07-28T10:58:59;25.28;64.13
71098;SHT35;58754;47.622;-2.986;2023-07-28T11:01:32;25.34;64.16
71098;SHT35;58754;47.622;-2.986;2023-07-28T11:04:19;25.35;64.21
71098;SHT35;58754;47.622;-2.986;2023-07-28T11:06:48;25.38;64.19
71098;SHT35;58754;47.622;-2.986;2023-07-28T11:09:16;25.38;64.26
71098;SHT35;58754;47.622;-2.986;2023-07-28T11:11:43;25.42;64.25
71098;SHT35;58754;47.622;-2.986;2023-07-28T11:14:09;25.39;64.30
71098;SHT35;58754;47.622;-2.986;2023-07-28T11:16:37;25.46;64.28
71098;SHT35;58754;47.622;-2.986;2023-07-28T11:19:06;25.43;64.33
71098;SHT35;58754;47.622;-2.986;2023-07-28T11:21:39;25.45;64.39
71098;SHT35;58754;47.622;-2.986;2023-07-28T11:24:06;25.46;64.42
71098;SHT35;58754;47.622;-2.986;2023-07-28T11:26:34;25.46;64.47
71098;SHT35;58754;47.622;-2.986;2023-07-28T11:29:00;25.47;64.48
71098;SHT35;58754;47.622;-2.986;2023-07-28T11:31:25;25.47;64.51
71098;SHT35;58754;47.622;-2.986;2023-07-28T11:33:52;25.49;64.56
71098;SHT35;58754;47.622;-2.986;2023-07-28T11:36:28;25.47;64.58
71098;SHT35;58754;47.622;-2.986;2023-07-28T11:38:57;25.50;64.58
71098;SHT35;58754;47.622;-2.986;2023-07-28T11:41:23;25.52;64.64
71098;SHT35;58754;47.622;-2.986;2023-07-28T11:43:50;25.52;64.70
71098;SHT35;58754;47.622;-2.986;2023-07-28T11:46:39;25.54;64.64
71098;SHT35;58754;47.622;-2.986;2023-07-28T11:49:13;25.54;64.70
71098;SHT35;58754;47.622;-2.986;2023-07-28T11:51:41;25.54;64.67
71098;SHT35;58754;47.622;-2.986;2023-07-28T11:54:13;25.53;64.70
71098;SHT35;58754;47.622;-2.986;2023-07-28T11:56:45;25.54;64.76
71098;SHT35;58754;47.622;-2.986;2023-07-28T11:59:14;25.56;64.76
71098;SHT35;58754;47.622;-2.986;2023-07-28T12:02:03;25.58;64.02
71098;SHT35;58754;47.622;-2.986;2023-07-28T12:04:32;25.53;63.38
71098;SHT35;58754;47.622;-2.986;2023-07-28T12:12:15;25.54;63.73
71098;SHT35;58754;47.622;-2.986;2023-07-28T12:14:41;25.54;63.78
71098;SHT35;58754;47.622;-2.986;2023-07-28T12:17:14;25.54;63.73
71098;SHT35;58754;47.622;-2.986;2023-07-28T12:19:59;25.58;63.69
71098;SHT35;58754;47.622;-2.986;2023-07-28T12:22:27;25.59;63.48
71098;SHT35;58754;47.622;-2.986;2023-07-28T12:24:54;25.54;63.54
71098;SHT35;58754;47.622;-2.986;2023-07-28T12:27:20;25.54;63.61
71098;SHT35;58754;47.622;-2.986;2023-07-28T12:29:49;25.54;63.62
71098;SHT35;58754;47.622;-2.986;2023-07-28T12:32:15;25.53;63.67
71098;SHT35;58754;47.622;-2.986;2023-07-28T12:34:41;25.52;63.71
71098;SHT35;58754;47.622;-2.986;2023-07-28T12:37:07;25.53;63.71
71098;SHT35;58754;47.622;-2.986;2023-07-28T12:39:36;25.50;63.79
71098;SHT35;58754;47.622;-2.986;2023-07-28T12:42:08;25.53;63.79
71098;SHT35;58754;47.622;-2.986;2023-07-28T12:44:35;25.56;63.86
71098;SHT35;58754;47.622;-2.986;2023-07-28T12:47:01;25.54;63.88
71098;SHT35;58754;47.622;-2.986;2023-07-28T12:49:27;25.56;63.94
71098;SHT35;58754;47.622;-2.986;2023-07-28T12:51:56;25.52;64.01
71098;SHT35;58754;47.622;-2.986;2023-07-28T12:54:23;25.53;64.08
71098;SHT35;58754;47.622;-2.986;2023-07-28T12:56:49;25.56;64.03
71098;SHT35;58754;47.622;-2.986;2023-07-28T12:59:15;25.54;64.14
71098;SHT35;58754;47.622;-2.986;2023-07-28T13:01:41;25.58;64.08
71098;SHT35;58754;47.622;-2.986;2023-07-28T13:04:06;25.58;64.14
71098;SHT35;58754;47.622;-2.986;2023-07-28T13:06:33;25.56;64.16
71098;SHT35;58754;47.622;-2.986;2023-07-28T13:08:59;25.60;64.26
71098;SHT35;58754;47.622;-2.986;2023-07-28T13:11:25;25.60;64.20
71098;SHT35;58754;47.622;-2.986;2023-07-28T13:13:50;25.62;64.24
71098;SHT35;58754;47.622;-2.986;2023-07-28T13:16:16;25.63;64.27
71098;SHT35;58754;47.622;-2.986;2023-07-28T13:18:43;25.63;64.29
71098;SHT35;58754;47.622;-2.986;2023-07-28T13:21:09;25.63;64.28
71098;SHT35;58754;47.622;-2.986;2023-07-28T13:23:38;25.62;64.39
71098;SHT35;58754;47.622;-2.986;2023-07-28T13:26:04;25.67;64.34
71098;SHT35;58754;47.622;-2.986;2023-07-28T13:28:30;25.65;64.34
71098;SHT35;58754;47.622;-2.986;2023-07-28T13:30:55;25.65;64.40
71098;SHT35;58754;47.622;-2.986;2023-07-28T13:33:21;25.66;64.38
71098;SHT35;58754;47.622;-2.986;2023-07-28T13:35:47;25.67;64.38
71098;SHT35;58754;47.622;-2.986;2023-07-28T13:38:13;25.66;64.40
71098;SHT35;58754;47.622;-2.986;2023-07-28T13:40:39;25.67;64.41
71098;SHT35;58754;47.622;-2.986;2023-07-28T13:43:04;25.69;64.45
71098;SHT35;58754;47.622;-2.986;2023-07-28T13:45:30;25.70;64.46
71098;SHT35;58754;47.622;-2.986;2023-07-28T13:47:56;25.69;64.43
71098;SHT35;58754;47.622;-2.986;2023-07-28T13:50:21;25.69;64.45
71098;SHT35;58754;47.622;-2.986;2023-07-28T13:52:48;25.71;64.45
71098;SHT35;58754;47.622;-2.986;2023-07-28T13:55:14;25.69;64.38
71098;SHT35;58754;47.622;-2.986;2023-07-28T13:57:40;25.71;64.38
71098;SHT35;58754;47.622;-2.986;2023-07-28T14:00:07;25.70;64.33
71098;SHT35;58754;47.622;-2.986;2023-07-28T14:02:37;25.70;64.29
71098;SHT35;58754;47.622;-2.986;2023-07-28T14:05:03;25.70;64.31
71098;SHT35;58754;47.622;-2.986;2023-07-28T14:07:29;25.73;64.29
71098;SHT35;58754;47.622;-2.986;2023-07-28T14:09:55;25.71;64.27
71098;SHT35;58754;47.622;-2.986;2023-07-28T14:12:21;25.71;64.23
71098;SHT35;58754;47.622;-2.986;2023-07-28T14:14:46;25.71;63.84
71098;SHT35;58754;47.622;-2.986;2023-07-28T14:17:12;25.70;63.57
71098;SHT35;58754;47.622;-2.986;2023-07-28T14:19:38;25.69;63.48
71098;SHT35;58754;47.622;-2.986;2023-07-28T14:22:05;25.70;63.37
71098;SHT35;58754;47.622;-2.986;2023-07-28T14:24:30;25.66;63.39
71098;SHT35;58754;47.622;-2.986;2023-07-28T14:26:56;25.66;63.53
71098;SHT35;58754;47.622;-2.986;2023-07-28T14:29:22;25.66;63.57
71098;SHT35;58754;47.622;-2.986;2023-07-28T14:31:48;25.67;63.54
71098;SHT35;58754;47.622;-2.986;2023-07-28T14:34:14;25.69;63.51
71098;SHT35;58754;47.622;-2.986;2023-07-28T14:36:40;25.70;63.46
71098;SHT35;58754;47.622;-2.986;2023-07-28T14:39:06;25.71;63.41
71098;SHT35;58754;47.622;-2.986;2023-07-28T14:41:32;25.71;63.45
71098;SHT35;58754;47.622;-2.986;2023-07-28T14:43:58;25.73;63.54
71098;SHT35;58754;47.622;-2.986;2023-07-28T14:46:24;25.69;63.59
71098;SHT35;58754;47.622;-2.986;2023-07-28T14:48:53;25.71;63.58
71098;SHT35;58754;47.622;-2.986;2023-07-28T14:51:20;25.70;63.62
71098;SHT35;58754;47.622;-2.986;2023-07-28T14:53:46;25.71;63.59
71098;SHT35;58754;47.622;-2.986;2023-07-28T14:56:13;25.71;63.62
71098;SHT35;58754;47.622;-2.986;2023-07-28T14:58:39;25.73;63.66
71098;SHT35;58754;47.622;-2.986;2023-07-28T15:01:10;25.71;63.68
71098;SHT35;58754;47.622;-2.986;2023-07-28T15:03:36;25.71;63.66
71098;SHT35;58754;47.622;-2.986;2023-07-28T15:06:03;25.71;63.69
71098;SHT35;58754;47.622;-2.986;2023-07-28T15:08:29;25.70;63.70
71098;SHT35;58754;47.622;-2.986;2023-07-28T15:10:56;25.73;63.73
71098;SHT35;58754;47.622;-2.986;2023-07-28T15:13:22;25.73;63.78
71098;SHT35;58754;47.622;-2.986;2023-07-28T15:15:48;25.71;63.82
71098;SHT35;58754;47.622;-2.986;2023-07-28T15:18:14;25.71;63.83
71098;SHT35;58754;47.622;-2.986;2023-07-28T15:20:41;25.74;63.85
71098;SHT35;58754;47.622;-2.986;2023-07-28T15:23:07;25.73;63.92